Portada
METAR-TAF:

METAR-TAF

Aeropuertos :

Libreville, Gabón

Aeropuerto Internacional de Libreville-Leon M'ba

latitud: 00-27N, longitud: 009-25E, altitud: 12 m

Observación

El informe se hizo hace 17 minutos, a las 04:00 UTC
Viento 8 kt del sur
Temperatura 27°C
Humedad 74%
Presión 1012 hPa
Visibilidad 10 km o más
Escasas nubes a una altura de 1000 ft

METAR: FOOL 280400Z 17008KT 9999 FEW010 27/22 Q1012 NOSIG

Hora: 05:17 (04:17 UTC)

Pronóstico

El informe se hizo hace 5 horas y 17 minutos, a las 23:00 UTC
Pronóstico válido del 28 a las 00 UTC al 30 a las 06 UTC
Viento 6 kt del sur-suroeste
Visibilidad 10 km o más
Nubes dispersas a una altura de 1200 ft
Temporalmente
del 28 a las 12 UTC al 28 a las 16 UTC
Nubes dispersas a una altura de 1200 ft
Escasas nubes a una altura de 2000 ft, Cumulonimbus.
tormenta

TAF: FOOL 272300Z 2800/3006 20006KT 9999 SCT012 TEMPO 2812/2816 TS SCT012 FEW020CB

Observaciones y pronósticos meteorológicos de más de 4000 aeropuertos (mensajes METAR y TAF).

Los puntos amarillos y rojos representan las estaciones disponibles.

Ponga el ratón en el punto deseado para ver el nombre de la estación.

Haga clic para ver las observaciones y los pronósticos meteorológicos.

Para cambiar el mapa : haga clic en los botones verdes con una cruz de color negro para hacer un zoom, en el botón verde con un guión para alejar o en las flechas verdes para mapas adyacentes.


METAR-TAF: